sensor_id;sensor_type;location;lat;lon;timestamp;P1;durP1;ratioP1;P2;durP2;ratioP2
64387;SDS011;50709;52.648;4.764;2023-08-30T00:00:17;5.70;;;3.65;;
64387;SDS011;50709;52.648;4.764;2023-08-30T00:02:43;6.32;;;4.00;;
64387;SDS011;50709;52.648;4.764;2023-08-30T00:05:09;6.72;;;4.30;;
64387;SDS011;50709;52.648;4.764;2023-08-30T00:07:35;7.75;;;4.38;;
64387;SDS011;50709;52.648;4.764;2023-08-30T00:10:01;5.95;;;3.90;;
64387;SDS011;50709;52.648;4.764;2023-08-30T00:12:27;7.40;;;4.75;;
64387;SDS011;50709;52.648;4.764;2023-08-30T00:14:52;7.38;;;4.70;;
64387;SDS011;50709;52.648;4.764;2023-08-30T00:17:18;8.55;;;4.60;;
64387;SDS011;50709;52.648;4.764;2023-08-30T00:19:44;8.00;;;4.75;;
64387;SDS011;50709;52.648;4.764;2023-08-30T00:22:10;8.07;;;4.75;;
64387;SDS011;50709;52.648;4.764;2023-08-30T00:24:37;7.43;;;4.60;;
64387;SDS011;50709;52.648;4.764;2023-08-30T00:27:03;7.28;;;4.57;;
64387;SDS011;50709;52.648;4.764;2023-08-30T00:29:28;8.00;;;4.80;;
64387;SDS011;50709;52.648;4.764;2023-08-30T00:31:54;8.02;;;4.65;;
64387;SDS011;50709;52.648;4.764;2023-08-30T00:34:20;7.60;;;4.57;;
64387;SDS011;50709;52.648;4.764;2023-08-30T00:36:46;8.05;;;5.25;;
64387;SDS011;50709;52.648;4.764;2023-08-30T00:39:11;7.72;;;4.95;;
64387;SDS011;50709;52.648;4.764;2023-08-30T00:41:38;8.25;;;4.72;;
64387;SDS011;50709;52.648;4.764;2023-08-30T00:44:03;7.85;;;5.03;;
64387;SDS011;50709;52.648;4.764;2023-08-30T00:46:29;7.22;;;4.88;;
64387;SDS011;50709;52.648;4.764;2023-08-30T00:48:55;10.73;;;4.95;;
64387;SDS011;50709;52.648;4.764;2023-08-30T00:51:21;10.13;;;4.97;;
64387;SDS011;50709;52.648;4.764;2023-08-30T00:53:47;7.22;;;4.82;;
64387;SDS011;50709;52.648;4.764;2023-08-30T00:56:14;9.10;;;5.00;;
64387;SDS011;50709;52.648;4.764;2023-08-30T00:58:40;8.80;;;5.20;;
64387;SDS011;50709;52.648;4.764;2023-08-30T01:01:05;8.18;;;5.05;;
64387;SDS011;50709;52.648;4.764;2023-08-30T01:03:34;9.15;;;5.38;;
64387;SDS011;50709;52.648;4.764;2023-08-30T01:06:00;10.55;;;5.55;;
64387;SDS011;50709;52.648;4.764;2023-08-30T01:08:26;7.13;;;4.57;;
64387;SDS011;50709;52.648;4.764;2023-08-30T01:14:13;8.90;;;5.50;;
64387;SDS011;50709;52.648;4.764;2023-08-30T01:16:59;8.07;;;5.30;;
64387;SDS011;50709;52.648;4.764;2023-08-30T01:19:30;9.48;;;5.30;;
64387;SDS011;50709;52.648;4.764;2023-08-30T01:22:18;10.65;;;5.75;;
64387;SDS011;50709;52.648;4.764;2023-08-30T01:24:57;8.60;;;5.95;;
64387;SDS011;50709;52.648;4.764;2023-08-30T01:27:30;10.23;;;5.72;;
64387;SDS011;50709;52.648;4.764;2023-08-30T01:29:59;10.45;;;5.38;;
64387;SDS011;50709;52.648;4.764;2023-08-30T01:32:27;10.65;;;6.20;;
64387;SDS011;50709;52.648;4.764;2023-08-30T01:34:53;9.43;;;5.22;;
64387;SDS011;50709;52.648;4.764;2023-08-30T01:37:20;12.40;;;6.03;;
64387;SDS011;50709;52.648;4.764;2023-08-30T01:39:46;12.57;;;5.85;;
64387;SDS011;50709;52.648;4.764;2023-08-30T01:42:12;7.43;;;5.10;;
64387;SDS011;50709;52.648;4.764;2023-08-30T01:44:40;8.52;;;5.47;;
64387;SDS011;50709;52.648;4.764;2023-08-30T01:47:09;8.57;;;5.13;;
64387;SDS011;50709;52.648;4.764;2023-08-30T01:49:36;9.82;;;5.55;;
64387;SDS011;50709;52.648;4.764;2023-08-30T01:52:04;9.98;;;5.18;;
64387;SDS011;50709;52.648;4.764;2023-08-30T01:54:31;8.90;;;5.57;;
64387;SDS011;50709;52.648;4.764;2023-08-30T01:56:57;10.27;;;5.10;;
64387;SDS011;50709;52.648;4.764;2023-08-30T01:59:23;9.32;;;5.47;;
64387;SDS011;50709;52.648;4.764;2023-08-30T02:01:49;6.90;;;4.47;;
64387;SDS011;50709;52.648;4.764;2023-08-30T02:04:16;7.63;;;4.93;;
64387;SDS011;50709;52.648;4.764;2023-08-30T02:09:29;11.13;;;5.38;;
64387;SDS011;50709;52.648;4.764;2023-08-30T02:12:19;11.25;;;5.75;;
64387;SDS011;50709;52.648;4.764;2023-08-30T02:14:49;9.18;;;5.15;;
64387;SDS011;50709;52.648;4.764;2023-08-30T02:17:15;9.82;;;5.55;;
64387;SDS011;50709;52.648;4.764;2023-08-30T02:19:42;7.50;;;4.72;;
64387;SDS011;50709;52.648;4.764;2023-08-30T02:22:09;8.50;;;5.18;;
64387;SDS011;50709;52.648;4.764;2023-08-30T02:24:34;8.30;;;4.95;;
64387;SDS011;50709;52.648;4.764;2023-08-30T02:26:59;11.50;;;5.45;;
64387;SDS011;50709;52.648;4.764;2023-08-30T02:29:25;9.35;;;5.20;;
64387;SDS011;50709;52.648;4.764;2023-08-30T02:31:50;7.60;;;4.63;;
64387;SDS011;50709;52.648;4.764;2023-08-30T02:34:16;8.32;;;5.35;;
64387;SDS011;50709;52.648;4.764;2023-08-30T02:36:41;8.65;;;5.32;;
64387;SDS011;50709;52.648;4.764;2023-08-30T02:39:07;9.80;;;5.22;;
64387;SDS011;50709;52.648;4.764;2023-08-30T02:41:32;10.90;;;5.55;;
64387;SDS011;50709;52.648;4.764;2023-08-30T02:43:57;9.45;;;5.28;;
64387;SDS011;50709;52.648;4.764;2023-08-30T02:46:23;8.57;;;5.00;;
64387;SDS011;50709;52.648;4.764;2023-08-30T02:48:48;11.25;;;5.72;;
64387;SDS011;50709;52.648;4.764;2023-08-30T02:51:13;9.10;;;4.93;;
64387;SDS011;50709;52.648;4.764;2023-08-30T02:53:39;9.93;;;5.38;;
64387;SDS011;50709;52.648;4.764;2023-08-30T02:56:04;10.10;;;5.60;;
64387;SDS011;50709;52.648;4.764;2023-08-30T02:58:30;9.10;;;4.93;;
64387;SDS011;50709;52.648;4.764;2023-08-30T03:00:55;9.60;;;6.07;;
64387;SDS011;50709;52.648;4.764;2023-08-30T03:03:21;10.48;;;5.63;;
64387;SDS011;50709;52.648;4.764;2023-08-30T03:05:46;11.20;;;5.97;;
64387;SDS011;50709;52.648;4.764;2023-08-30T03:08:11;10.60;;;5.78;;
64387;SDS011;50709;52.648;4.764;2023-08-30T03:10:37;10.88;;;5.65;;
64387;SDS011;50709;52.648;4.764;2023-08-30T03:13:02;9.43;;;5.50;;
64387;SDS011;50709;52.648;4.764;2023-08-30T03:15:30;10.55;;;6.40;;
64387;SDS011;50709;52.648;4.764;2023-08-30T03:17:59;10.75;;;6.22;;
64387;SDS011;50709;52.648;4.764;2023-08-30T03:20:25;9.57;;;5.47;;
64387;SDS011;50709;52.648;4.764;2023-08-30T03:22:51;9.80;;;6.00;;
64387;SDS011;50709;52.648;4.764;2023-08-30T03:25:16;11.07;;;5.97;;
64387;SDS011;50709;52.648;4.764;2023-08-30T03:27:43;10.50;;;6.13;;
64387;SDS011;50709;52.648;4.764;2023-08-30T03:30:09;9.88;;;6.03;;
64387;SDS011;50709;52.648;4.764;2023-08-30T03:32:36;12.15;;;6.63;;
64387;SDS011;50709;52.648;4.764;2023-08-30T03:35:02;10.48;;;6.07;;
64387;SDS011;50709;52.648;4.764;2023-08-30T03:37:28;11.07;;;5.75;;
64387;SDS011;50709;52.648;4.764;2023-08-30T03:39:54;11.38;;;6.05;;
64387;SDS011;50709;52.648;4.764;2023-08-30T03:42:19;9.68;;;6.10;;
64387;SDS011;50709;52.648;4.764;2023-08-30T03:44:45;11.38;;;7.15;;
64387;SDS011;50709;52.648;4.764;2023-08-30T03:47:10;12.48;;;6.10;;
64387;SDS011;50709;52.648;4.764;2023-08-30T03:49:35;8.82;;;5.43;;
64387;SDS011;50709;52.648;4.764;2023-08-30T03:52:01;12.98;;;7.13;;
64387;SDS011;50709;52.648;4.764;2023-08-30T03:54:27;11.18;;;6.43;;
64387;SDS011;50709;52.648;4.764;2023-08-30T03:56:52;12.05;;;7.22;;
64387;SDS011;50709;52.648;4.764;2023-08-30T03:59:17;13.48;;;6.65;;
64387;SDS011;50709;52.648;4.764;2023-08-30T04:01:43;11.05;;;7.25;;
64387;SDS011;50709;52.648;4.764;2023-08-30T04:04:10;12.25;;;6.97;;
64387;SDS011;50709;52.648;4.764;2023-08-30T04:06:35;12.88;;;7.80;;
64387;SDS011;50709;52.648;4.764;2023-08-30T04:09:01;13.52;;;7.75;;
64387;SDS011;50709;52.648;4.764;2023-08-30T04:11:26;15.77;;;8.25;;
64387;SDS011;50709;52.648;4.764;2023-08-30T04:13:51;13.18;;;7.43;;
64387;SDS011;50709;52.648;4.764;2023-08-30T04:16:17;12.38;;;7.13;;
64387;SDS011;50709;52.648;4.764;2023-08-30T04:18:43;14.40;;;7.97;;
64387;SDS011;50709;52.648;4.764;2023-08-30T04:21:08;13.27;;;7.57;;
64387;SDS011;50709;52.648;4.764;2023-08-30T04:23:34;12.80;;;7.40;;
64387;SDS011;50709;52.648;4.764;2023-08-30T04:26:00;11.98;;;7.78;;
64387;SDS011;50709;52.648;4.764;2023-08-30T04:28:25;11.52;;;6.43;;
64387;SDS011;50709;52.648;4.764;2023-08-30T04:30:54;13.55;;;8.15;;
64387;SDS011;50709;52.648;4.764;2023-08-30T04:33:21;17.08;;;7.75;;
64387;SDS011;50709;52.648;4.764;2023-08-30T04:35:50;12.90;;;7.13;;
64387;SDS011;50709;52.648;4.764;2023-08-30T04:38:16;14.10;;;7.75;;
64387;SDS011;50709;52.648;4.764;2023-08-30T04:40:41;11.38;;;7.50;;
64387;SDS011;50709;52.648;4.764;2023-08-30T04:43:07;15.52;;;7.80;;
64387;SDS011;50709;52.648;4.764;2023-08-30T04:45:34;13.77;;;8.18;;
64387;SDS011;50709;52.648;4.764;2023-08-30T04:47:59;13.38;;;7.72;;
64387;SDS011;50709;52.648;4.764;2023-08-30T04:50:25;11.80;;;6.97;;
64387;SDS011;50709;52.648;4.764;2023-08-30T04:52:50;13.55;;;7.10;;
64387;SDS011;50709;52.648;4.764;2023-08-30T04:55:15;13.27;;;8.13;;
64387;SDS011;50709;52.648;4.764;2023-08-30T04:57:41;16.73;;;9.27;;
64387;SDS011;50709;52.648;4.764;2023-08-30T05:00:09;13.32;;;8.85;;
64387;SDS011;50709;52.648;4.764;2023-08-30T05:02:36;13.23;;;8.00;;
64387;SDS011;50709;52.648;4.764;2023-08-30T05:05:02;15.93;;;9.23;;
64387;SDS011;50709;52.648;4.764;2023-08-30T05:07:27;18.00;;;9.50;;
64387;SDS011;50709;52.648;4.764;2023-08-30T05:09:53;17.08;;;9.82;;
64387;SDS011;50709;52.648;4.764;2023-08-30T05:12:19;14.63;;;9.27;;
64387;SDS011;50709;52.648;4.764;2023-08-30T05:14:44;13.45;;;8.90;;
64387;SDS011;50709;52.648;4.764;2023-08-30T05:17:09;14.25;;;8.40;;
64387;SDS011;50709;52.648;4.764;2023-08-30T05:19:35;13.02;;;8.25;;
64387;SDS011;50709;52.648;4.764;2023-08-30T05:22:00;14.57;;;8.90;;
64387;SDS011;50709;52.648;4.764;2023-08-30T05:24:25;12.88;;;7.85;;
64387;SDS011;50709;52.648;4.764;2023-08-30T05:26:52;15.63;;;8.82;;
64387;SDS011;50709;52.648;4.764;2023-08-30T05:29:17;13.68;;;8.18;;
64387;SDS011;50709;52.648;4.764;2023-08-30T05:31:43;15.20;;;9.00;;
64387;SDS011;50709;52.648;4.764;2023-08-30T05:34:09;16.25;;;9.18;;
64387;SDS011;50709;52.648;4.764;2023-08-30T05:36:35;15.63;;;9.32;;
64387;SDS011;50709;52.648;4.764;2023-08-30T05:39:00;15.50;;;8.90;;
64387;SDS011;50709;52.648;4.764;2023-08-30T05:41:26;16.73;;;9.18;;
64387;SDS011;50709;52.648;4.764;2023-08-30T05:43:51;20.35;;;9.18;;
64387;SDS011;50709;52.648;4.764;2023-08-30T05:46:17;16.23;;;8.93;;
64387;SDS011;50709;52.648;4.764;2023-08-30T05:48:42;15.38;;;9.52;;
64387;SDS011;50709;52.648;4.764;2023-08-30T05:51:08;14.70;;;7.97;;
64387;SDS011;50709;52.648;4.764;2023-08-30T05:53:33;16.40;;;9.00;;
64387;SDS011;50709;52.648;4.764;2023-08-30T05:55:59;15.75;;;7.85;;
64387;SDS011;50709;52.648;4.764;2023-08-30T05:58:24;16.38;;;8.02;;
64387;SDS011;50709;52.648;4.764;2023-08-30T06:00:49;12.32;;;6.95;;
64387;SDS011;50709;52.648;4.764;2023-08-30T06:03:15;12.18;;;7.28;;
64387;SDS011;50709;52.648;4.764;2023-08-30T06:05:41;13.55;;;6.97;;
64387;SDS011;50709;52.648;4.764;2023-08-30T06:08:08;13.18;;;6.47;;
64387;SDS011;50709;52.648;4.764;2023-08-30T06:10:34;14.30;;;7.53;;
64387;SDS011;50709;52.648;4.764;2023-08-30T06:13:00;13.77;;;7.32;;
64387;SDS011;50709;52.648;4.764;2023-08-30T06:15:27;11.68;;;7.50;;
64387;SDS011;50709;52.648;4.764;2023-08-30T06:17:53;15.07;;;7.20;;
64387;SDS011;50709;52.648;4.764;2023-08-30T06:20:41;12.27;;;6.90;;
64387;SDS011;50709;52.648;4.764;2023-08-30T06:23:06;12.02;;;6.65;;
64387;SDS011;50709;52.648;4.764;2023-08-30T06:25:32;11.75;;;7.07;;
64387;SDS011;50709;52.648;4.764;2023-08-30T06:27:58;13.55;;;6.97;;
64387;SDS011;50709;52.648;4.764;2023-08-30T06:30:25;12.55;;;6.90;;
64387;SDS011;50709;52.648;4.764;2023-08-30T06:32:50;14.10;;;7.53;;
64387;SDS011;50709;52.648;4.764;2023-08-30T06:35:16;12.13;;;6.80;;
64387;SDS011;50709;52.648;4.764;2023-08-30T06:37:41;12.52;;;7.20;;
64387;SDS011;50709;52.648;4.764;2023-08-30T06:40:07;11.98;;;6.60;;
64387;SDS011;50709;52.648;4.764;2023-08-30T06:42:32;13.00;;;6.85;;
64387;SDS011;50709;52.648;4.764;2023-08-30T06:44:58;12.95;;;7.15;;
64387;SDS011;50709;52.648;4.764;2023-08-30T06:47:23;11.38;;;6.80;;
64387;SDS011;50709;52.648;4.764;2023-08-30T06:49:49;12.43;;;6.40;;
64387;SDS011;50709;52.648;4.764;2023-08-30T06:52:14;11.77;;;7.20;;
64387;SDS011;50709;52.648;4.764;2023-08-30T06:54:39;14.40;;;7.18;;
64387;SDS011;50709;52.648;4.764;2023-08-30T06:57:05;11.85;;;6.43;;
64387;SDS011;50709;52.648;4.764;2023-08-30T06:59:32;10.93;;;6.50;;
64387;SDS011;50709;52.648;4.764;2023-08-30T07:01:57;12.65;;;7.15;;
64387;SDS011;50709;52.648;4.764;2023-08-30T07:04:23;11.98;;;6.68;;
64387;SDS011;50709;52.648;4.764;2023-08-30T07:06:48;11.27;;;6.88;;
64387;SDS011;50709;52.648;4.764;2023-08-30T07:09:33;13.80;;;7.38;;
64387;SDS011;50709;52.648;4.764;2023-08-30T07:11:59;12.32;;;6.70;;
64387;SDS011;50709;52.648;4.764;2023-08-30T07:14:24;13.65;;;7.68;;
64387;SDS011;50709;52.648;4.764;2023-08-30T07:16:51;11.27;;;6.60;;
64387;SDS011;50709;52.648;4.764;2023-08-30T07:19:16;15.18;;;8.15;;
64387;SDS011;50709;52.648;4.764;2023-08-30T07:21:42;13.18;;;7.22;;
64387;SDS011;50709;52.648;4.764;2023-08-30T07:24:08;13.18;;;7.75;;
64387;SDS011;50709;52.648;4.764;2023-08-30T07:26:33;15.07;;;7.88;;
64387;SDS011;50709;52.648;4.764;2023-08-30T07:28:59;12.43;;;6.93;;
64387;SDS011;50709;52.648;4.764;2023-08-30T07:31:24;12.82;;;7.22;;
64387;SDS011;50709;52.648;4.764;2023-08-30T07:33:50;14.60;;;7.90;;
64387;SDS011;50709;52.648;4.764;2023-08-30T07:36:15;13.32;;;7.72;;
64387;SDS011;50709;52.648;4.764;2023-08-30T07:38:40;14.05;;;7.55;;
64387;SDS011;50709;52.648;4.764;2023-08-30T07:41:06;13.15;;;7.15;;
64387;SDS011;50709;52.648;4.764;2023-08-30T07:43:31;11.65;;;6.65;;
64387;SDS011;50709;52.648;4.764;2023-08-30T07:45:57;14.10;;;8.05;;
64387;SDS011;50709;52.648;4.764;2023-08-30T07:48:23;12.50;;;7.63;;
64387;SDS011;50709;52.648;4.764;2023-08-30T07:50:49;13.13;;;7.13;;
64387;SDS011;50709;52.648;4.764;2023-08-30T07:53:15;13.68;;;7.93;;
64387;SDS011;50709;52.648;4.764;2023-08-30T07:55:41;11.55;;;7.05;;
64387;SDS011;50709;52.648;4.764;2023-08-30T07:58:06;15.32;;;7.15;;
64387;SDS011;50709;52.648;4.764;2023-08-30T08:00:34;14.00;;;7.43;;
64387;SDS011;50709;52.648;4.764;2023-08-30T08:02:59;14.98;;;7.68;;
64387;SDS011;50709;52.648;4.764;2023-08-30T08:05:25;11.52;;;7.43;;
64387;SDS011;50709;52.648;4.764;2023-08-30T08:07:51;12.90;;;7.57;;
64387;SDS011;50709;52.648;4.764;2023-08-30T08:10:17;15.20;;;7.65;;
64387;SDS011;50709;52.648;4.764;2023-08-30T08:12:44;12.98;;;7.35;;
64387;SDS011;50709;52.648;4.764;2023-08-30T08:15:19;13.25;;;7.30;;
64387;SDS011;50709;52.648;4.764;2023-08-30T08:17:45;14.20;;;7.47;;
64387;SDS011;50709;52.648;4.764;2023-08-30T08:20:10;15.70;;;7.82;;
64387;SDS011;50709;52.648;4.764;2023-08-30T08:22:36;11.88;;;7.70;;
64387;SDS011;50709;52.648;4.764;2023-08-30T08:25:02;15.05;;;8.18;;
64387;SDS011;50709;52.648;4.764;2023-08-30T08:27:28;14.52;;;8.23;;
64387;SDS011;50709;52.648;4.764;2023-08-30T08:29:53;14.23;;;8.10;;
64387;SDS011;50709;52.648;4.764;2023-08-30T08:32:18;14.38;;;8.52;;
64387;SDS011;50709;52.648;4.764;2023-08-30T08:34:44;15.20;;;8.88;;
64387;SDS011;50709;52.648;4.764;2023-08-30T08:37:10;13.00;;;7.25;;
64387;SDS011;50709;52.648;4.764;2023-08-30T08:39:35;14.95;;;8.45;;
64387;SDS011;50709;52.648;4.764;2023-08-30T08:42:01;11.82;;;7.47;;
64387;SDS011;50709;52.648;4.764;2023-08-30T08:44:28;11.27;;;6.70;;
64387;SDS011;50709;52.648;4.764;2023-08-30T08:46:57;10.30;;;6.22;;
64387;SDS011;50709;52.648;4.764;2023-08-30T08:49:24;8.82;;;6.25;;
64387;SDS011;50709;52.648;4.764;2023-08-30T08:51:53;8.40;;;5.85;;
64387;SDS011;50709;52.648;4.764;2023-08-30T08:54:19;9.38;;;6.10;;
64387;SDS011;50709;52.648;4.764;2023-08-30T08:56:45;12.02;;;6.60;;
64387;SDS011;50709;52.648;4.764;2023-08-30T08:59:11;9.68;;;5.80;;
64387;SDS011;50709;52.648;4.764;2023-08-30T09:01:37;11.45;;;6.93;;
64387;SDS011;50709;52.648;4.764;2023-08-30T09:04:07;9.55;;;5.90;;
64387;SDS011;50709;52.648;4.764;2023-08-30T09:06:34;9.68;;;6.18;;
64387;SDS011;50709;52.648;4.764;2023-08-30T09:09:01;8.80;;;5.45;;
64387;SDS011;50709;52.648;4.764;2023-08-30T09:11:30;8.52;;;5.18;;
64387;SDS011;50709;52.648;4.764;2023-08-30T09:13:55;7.35;;;4.85;;
64387;SDS011;50709;52.648;4.764;2023-08-30T09:16:21;7.13;;;4.35;;
64387;SDS011;50709;52.648;4.764;2023-08-30T09:19:07;6.05;;;4.15;;
64387;SDS011;50709;52.648;4.764;2023-08-30T09:21:32;7.85;;;4.40;;
64387;SDS011;50709;52.648;4.764;2023-08-30T09:26:24;6.28;;;4.05;;
64387;SDS011;50709;52.648;4.764;2023-08-30T09:28:50;7.60;;;4.57;;
64387;SDS011;50709;52.648;4.764;2023-08-30T09:31:36;5.97;;;4.03;;
64387;SDS011;50709;52.648;4.764;2023-08-30T09:34:03;7.18;;;4.68;;
64387;SDS011;50709;52.648;4.764;2023-08-30T09:36:38;7.70;;;5.30;;
64387;SDS011;50709;52.648;4.764;2023-08-30T09:41:40;6.50;;;4.13;;
64387;SDS011;50709;52.648;4.764;2023-08-30T09:44:10;6.38;;;4.53;;
64387;SDS011;50709;52.648;4.764;2023-08-30T09:49:08;8.30;;;4.90;;
64387;SDS011;50709;52.648;4.764;2023-08-30T09:51:34;7.72;;;3.75;;
64387;SDS011;50709;52.648;4.764;2023-08-30T09:54:03;7.30;;;4.15;;
64387;SDS011;50709;52.648;4.764;2023-08-30T09:56:31;9.50;;;3.67;;
64387;SDS011;50709;52.648;4.764;2023-08-30T09:59:20;6.53;;;3.90;;
64387;SDS011;50709;52.648;4.764;2023-08-30T10:01:47;6.70;;;4.03;;
64387;SDS011;50709;52.648;4.764;2023-08-30T10:04:17;6.13;;;3.60;;
64387;SDS011;50709;52.648;4.764;2023-08-30T10:06:44;10.23;;;4.10;;
64387;SDS011;50709;52.648;4.764;2023-08-30T10:09:11;9.55;;;3.90;;
64387;SDS011;50709;52.648;4.764;2023-08-30T10:11:38;6.50;;;3.72;;
64387;SDS011;50709;52.648;4.764;2023-08-30T10:14:04;8.10;;;3.75;;
64387;SDS011;50709;52.648;4.764;2023-08-30T10:19:17;8.65;;;3.75;;
64387;SDS011;50709;52.648;4.764;2023-08-30T10:24:33;5.93;;;3.53;;
64387;SDS011;50709;52.648;4.764;2023-08-30T10:27:04;7.13;;;3.88;;
64387;SDS011;50709;52.648;4.764;2023-08-30T10:29:32;6.70;;;3.50;;
64387;SDS011;50709;52.648;4.764;2023-08-30T10:32:05;5.45;;;3.58;;
64387;SDS011;50709;52.648;4.764;2023-08-30T10:34:34;6.35;;;3.47;;
64387;SDS011;50709;52.648;4.764;2023-08-30T10:37:01;6.82;;;3.50;;
64387;SDS011;50709;52.648;4.764;2023-08-30T10:39:37;4.90;;;2.83;;
64387;SDS011;50709;52.648;4.764;2023-08-30T10:42:10;7.63;;;3.50;;
64387;SDS011;50709;52.648;4.764;2023-08-30T10:44:56;6.80;;;3.33;;
64387;SDS011;50709;52.648;4.764;2023-08-30T10:47:38;8.00;;;3.45;;
64387;SDS011;50709;52.648;4.764;2023-08-30T10:50:05;9.88;;;3.42;;
64387;SDS011;50709;52.648;4.764;2023-08-30T10:52:32;6.90;;;3.58;;
64387;SDS011;50709;52.648;4.764;2023-08-30T10:55:07;6.95;;;3.47;;
64387;SDS011;50709;52.648;4.764;2023-08-30T10:57:37;6.25;;;3.50;;
64387;SDS011;50709;52.648;4.764;2023-08-30T11:02:43;6.72;;;3.53;;
64387;SDS011;50709;52.648;4.764;2023-08-30T11:05:13;6.30;;;3.20;;
64387;SDS011;50709;52.648;4.764;2023-08-30T11:07:38;6.07;;;3.13;;
64387;SDS011;50709;52.648;4.764;2023-08-30T11:10:04;7.18;;;3.00;;
64387;SDS011;50709;52.648;4.764;2023-08-30T11:12:31;6.10;;;3.35;;
64387;SDS011;50709;52.648;4.764;2023-08-30T11:14:57;6.85;;;3.00;;
64387;SDS011;50709;52.648;4.764;2023-08-30T11:17:22;5.07;;;2.90;;
64387;SDS011;50709;52.648;4.764;2023-08-30T11:19:51;7.97;;;3.03;;
64387;SDS011;50709;52.648;4.764;2023-08-30T11:22:22;6.97;;;3.30;;
64387;SDS011;50709;52.648;4.764;2023-08-30T11:24:48;6.65;;;3.00;;
64387;SDS011;50709;52.648;4.764;2023-08-30T11:27:17;7.85;;;3.35;;
64387;SDS011;50709;52.648;4.764;2023-08-30T11:29:42;8.18;;;2.90;;
64387;SDS011;50709;52.648;4.764;2023-08-30T11:32:08;5.75;;;3.10;;
64387;SDS011;50709;52.648;4.764;2023-08-30T11:34:33;6.55;;;3.00;;
64387;SDS011;50709;52.648;4.764;2023-08-30T11:36:59;7.10;;;2.95;;
64387;SDS011;50709;52.648;4.764;2023-08-30T11:39:26;4.90;;;3.00;;
64387;SDS011;50709;52.648;4.764;2023-08-30T11:41:53;5.88;;;2.67;;
64387;SDS011;50709;52.648;4.764;2023-08-30T11:44:18;8.13;;;3.13;;
64387;SDS011;50709;52.648;4.764;2023-08-30T11:46:44;6.25;;;2.47;;
64387;SDS011;50709;52.648;4.764;2023-08-30T11:49:10;4.82;;;2.83;;
64387;SDS011;50709;52.648;4.764;2023-08-30T11:51:35;5.90;;;2.60;;
64387;SDS011;50709;52.648;4.764;2023-08-30T11:54:01;7.15;;;2.88;;
64387;SDS011;50709;52.648;4.764;2023-08-30T11:56:28;4.38;;;2.40;;
64387;SDS011;50709;52.648;4.764;2023-08-30T11:58:54;5.95;;;2.80;;
64387;SDS011;50709;52.648;4.764;2023-08-30T12:01:40;4.60;;;2.67;;
64387;SDS011;50709;52.648;4.764;2023-08-30T12:04:11;5.75;;;2.80;;
64387;SDS011;50709;52.648;4.764;2023-08-30T12:06:37;6.18;;;2.97;;
64387;SDS011;50709;52.648;4.764;2023-08-30T12:09:02;6.32;;;2.80;;
64387;SDS011;50709;52.648;4.764;2023-08-30T12:11:31;4.32;;;2.67;;
64387;SDS011;50709;52.648;4.764;2023-08-30T12:14:01;5.95;;;2.65;;
64387;SDS011;50709;52.648;4.764;2023-08-30T12:16:27;7.50;;;3.00;;
64387;SDS011;50709;52.648;4.764;2023-08-30T12:18:52;4.55;;;2.03;;
64387;SDS011;50709;52.648;4.764;2023-08-30T12:21:19;4.53;;;2.42;;
64387;SDS011;50709;52.648;4.764;2023-08-30T12:23:44;6.13;;;2.67;;
64387;SDS011;50709;52.648;4.764;2023-08-30T12:26:10;4.68;;;2.30;;
64387;SDS011;50709;52.648;4.764;2023-08-30T12:28:36;6.05;;;2.35;;
64387;SDS011;50709;52.648;4.764;2023-08-30T12:31:03;4.35;;;2.15;;
64387;SDS011;50709;52.648;4.764;2023-08-30T12:33:29;5.20;;;2.10;;
64387;SDS011;50709;52.648;4.764;2023-08-30T12:35:55;5.25;;;2.40;;
64387;SDS011;50709;52.648;4.764;2023-08-30T12:38:21;6.05;;;2.35;;
64387;SDS011;50709;52.648;4.764;2023-08-30T12:40:47;5.03;;;2.40;;
64387;SDS011;50709;52.648;4.764;2023-08-30T12:43:15;5.80;;;2.40;;
64387;SDS011;50709;52.648;4.764;2023-08-30T12:45:42;5.05;;;2.45;;
64387;SDS011;50709;52.648;4.764;2023-08-30T12:48:09;5.43;;;2.30;;
64387;SDS011;50709;52.648;4.764;2023-08-30T12:50:36;2.67;;;1.90;;
64387;SDS011;50709;52.648;4.764;2023-08-30T12:53:02;4.63;;;1.95;;
64387;SDS011;50709;52.648;4.764;2023-08-30T12:55:28;3.80;;;2.20;;
64387;SDS011;50709;52.648;4.764;2023-08-30T12:57:54;6.47;;;2.20;;
64387;SDS011;50709;52.648;4.764;2023-08-30T13:00:19;7.00;;;2.35;;
64387;SDS011;50709;52.648;4.764;2023-08-30T13:02:45;4.30;;;2.05;;
64387;SDS011;50709;52.648;4.764;2023-08-30T13:05:10;4.57;;;2.35;;
64387;SDS011;50709;52.648;4.764;2023-08-30T13:07:36;4.43;;;2.20;;
64387;SDS011;50709;52.648;4.764;2023-08-30T13:10:02;4.75;;;2.22;;
64387;SDS011;50709;52.648;4.764;2023-08-30T13:12:27;3.55;;;1.90;;
64387;SDS011;50709;52.648;4.764;2023-08-30T13:14:53;3.28;;;1.95;;
64387;SDS011;50709;52.648;4.764;2023-08-30T13:17:18;4.85;;;2.00;;
64387;SDS011;50709;52.648;4.764;2023-08-30T13:19:44;2.67;;;1.70;;
64387;SDS011;50709;52.648;4.764;2023-08-30T13:22:09;4.22;;;2.33;;
64387;SDS011;50709;52.648;4.764;2023-08-30T13:24:35;3.17;;;1.70;;
64387;SDS011;50709;52.648;4.764;2023-08-30T13:27:01;3.03;;;1.67;;
64387;SDS011;50709;52.648;4.764;2023-08-30T13:29:27;4.28;;;2.13;;
64387;SDS011;50709;52.648;4.764;2023-08-30T13:31:52;4.93;;;2.00;;
64387;SDS011;50709;52.648;4.764;2023-08-30T13:34:17;3.75;;;1.98;;
64387;SDS011;50709;52.648;4.764;2023-08-30T13:36:43;5.80;;;2.10;;
64387;SDS011;50709;52.648;4.764;2023-08-30T13:39:08;6.88;;;2.58;;
64387;SDS011;50709;52.648;4.764;2023-08-30T13:41:33;5.25;;;2.15;;
64387;SDS011;50709;52.648;4.764;2023-08-30T13:44:00;4.50;;;2.40;;
64387;SDS011;50709;52.648;4.764;2023-08-30T13:46:26;3.38;;;1.98;;
64387;SDS011;50709;52.648;4.764;2023-08-30T13:48:51;6.25;;;2.50;;
64387;SDS011;50709;52.648;4.764;2023-08-30T13:51:23;5.10;;;2.20;;
64387;SDS011;50709;52.648;4.764;2023-08-30T13:53:50;5.20;;;2.45;;
64387;SDS011;50709;52.648;4.764;2023-08-30T13:56:16;5.47;;;2.38;;
64387;SDS011;50709;52.648;4.764;2023-08-30T13:58:41;3.58;;;2.20;;
64387;SDS011;50709;52.648;4.764;2023-08-30T14:01:07;6.07;;;2.35;;
64387;SDS011;50709;52.648;4.764;2023-08-30T14:03:32;4.78;;;2.00;;
64387;SDS011;50709;52.648;4.764;2023-08-30T14:05:58;5.38;;;2.20;;
64387;SDS011;50709;52.648;4.764;2023-08-30T14:08:23;3.95;;;2.17;;
64387;SDS011;50709;52.648;4.764;2023-08-30T14:10:49;6.40;;;2.30;;
64387;SDS011;50709;52.648;4.764;2023-08-30T14:13:14;3.75;;;2.17;;
64387;SDS011;50709;52.648;4.764;2023-08-30T14:15:40;3.58;;;2.20;;
64387;SDS011;50709;52.648;4.764;2023-08-30T14:18:07;5.72;;;2.00;;
64387;SDS011;50709;52.648;4.764;2023-08-30T14:20:32;4.68;;;1.98;;
64387;SDS011;50709;52.648;4.764;2023-08-30T14:22:58;5.70;;;2.42;;
64387;SDS011;50709;52.648;4.764;2023-08-30T14:25:23;6.25;;;2.10;;
64387;SDS011;50709;52.648;4.764;2023-08-30T14:27:49;4.28;;;2.17;;
64387;SDS011;50709;52.648;4.764;2023-08-30T14:30:14;3.03;;;2.00;;
64387;SDS011;50709;52.648;4.764;2023-08-30T14:32:40;3.90;;;2.10;;
64387;SDS011;50709;52.648;4.764;2023-08-30T14:35:06;3.38;;;1.83;;
64387;SDS011;50709;52.648;4.764;2023-08-30T14:37:31;4.43;;;1.90;;
64387;SDS011;50709;52.648;4.764;2023-08-30T14:39:59;6.30;;;2.35;;
64387;SDS011;50709;52.648;4.764;2023-08-30T14:42:25;4.53;;;2.38;;
64387;SDS011;50709;52.648;4.764;2023-08-30T14:44:50;3.95;;;2.05;;
64387;SDS011;50709;52.648;4.764;2023-08-30T14:47:17;3.17;;;2.00;;
64387;SDS011;50709;52.648;4.764;2023-08-30T14:49:43;5.32;;;2.30;;
64387;SDS011;50709;52.648;4.764;2023-08-30T14:52:10;4.35;;;2.10;;
64387;SDS011;50709;52.648;4.764;2023-08-30T14:54:35;5.28;;;2.00;;
64387;SDS011;50709;52.648;4.764;2023-08-30T14:57:00;3.53;;;2.08;;
64387;SDS011;50709;52.648;4.764;2023-08-30T14:59:26;4.65;;;2.10;;
64387;SDS011;50709;52.648;4.764;2023-08-30T15:01:51;3.97;;;2.20;;